Last 30 Days

Squaw-Red Dog 6200'

Daily Data | America/Los_Angeles
as of 1/15/21 12:23 PM PST
Date Daily Max Temp (°F) Time of Max Temp Daily Min Temp (°F) Time of Min Temp Daily Rain (In) New Snow (in) SnowDepth (in) Wind Spd (mph) Daily Max Wind (mph) Time of Max Wind Max Wind Dir (°) Max RH (%) Min RH (%) Wet Bulb (°F) WetB Hrs <28F (hrs) Bat Volt Min Day (V)
1/14/21 53.6 1421 24.4 0628 0.00 - 13.1 0.8 5.6 1420 SW | 220 99 24 30.4 - 12.4
1/13/21 48.1 1439 27.4 2355 0.00 0.1 12.7 3.3 18.9 0406 N | 5 99 68 39.2 3.2 12.4
1/12/21 47.3 1350 29.6 0015 0.00 0.2 12.6 5.3 24.3 1605 NE | 38 98 23 - 0.8 12.4
1/11/21 51.7 1429 23.4 0756 0.00 0.1 15.6 1.1 6.8 1456 NW | 325 96 32 - - 12.4
1/10/21 44.8 1317 20.0 0748 0.00 - 15.7 1.9 11.3 1154 N | 10 96 53 - - 12.4
1/9/21 42.9 1351 16.7 0619 0.00 - 15.7 0.8 3.9 1434 WNW | 301 96 35 23.9 - 12.4
1/8/21 39.3 0657 23.3 0352 0.00 - 15.7 5.2 24.3 1448 NNE | 19 89 47 - - 12.4
1/7/21 48.6 1346 14.7 0742 0.00 1.6 15.7 1.1 8.8 1419 NW | 323 89 16 24.3 - 12.4
1/6/21 44.6 1126 19.0 0637 0.00 1.7 14.7 6.2 25.4 1620 NNW | 342 97 13 27.6 - 12.4
1/5/21 44.2 1411 19.5 0719 0.00 1.7 15.1 1.3 8.5 0026 NNW | 337 98 28 25.5 - 12.4
1/4/21 40.3 0820 29.6 0015 0.00 1.4 7.5 9.6 36.6 1729 NNE | 20 94 59 - 0.0 12.4
1/3/21 - 1231 29.2 2231 0.00 1.1 14.4 2.7 18.3 0340 NE | 35 96 65 - 0.0 12.4
1/2/21 39.9 1644 31.7 0547 0.00 1.0 15.2 4.3 23.0 1651 NNE | 21 95 55 - 0.0 12.4
1/1/21 41.5 1345 12.7 0613 0.00 2.4 83.7 4.2 27.9 2249 NE | 44 97 37 25.2 - 12.4
12/31/20 35.4 1410 17.4 2348 0.00 2.6 82.8 2.7 17.2 0540 S | 186 98 71 26.6 - 12.4
12/30/20 43.1 1328 14.8 0410 0.00 1.0 77.7 4.8 23.9 2116 NNW | 345 96 17 24.0 - 12.4
12/29/20 31.6 1400 10.0 0733 0.00 0.4 17.9 0.8 4.8 1439 NW | 313 96 57 18.6 - 12.4
12/28/20 33.5 1328 19.1 2348 0.00 0.8 16.9 1.4 12.4 1848 SSE | 162 97 76 25.9 - 12.5
12/27/20 34.8 1352 17.0 0247 0.00 - 13.9 1.2 10.1 1600 S | 171 97 65 23.9 - 12.5
12/26/20 - 0001 - 0001 0.00 - 17.5 5.1 29.5 0749 NW | 312 96 92 - 5.1 12.4
12/25/20 43.8 1229 22.7 0011 0.00 - 206.2 6.1 35.7 0913 N | 5 96 24 - 7.0 12.5
12/24/20 48.2 1407 13.9 0553 0.00 - 236.4 1.2 8.8 1438 WNW | 296 96 16 22.5 - 12.4
12/23/20 43.5 1354 11.7 0728 0.00 - 238.9 1.0 7.6 1347 NW | 309 94 21 19.6 - 12.5
12/22/20 45.1 1411 20.7 2325 0.00 - 236.9 4.5 31.3 0236 NNW | 346 91 21 28.1 - 12.4
12/21/20 52.4 1314 21.3 0719 0.00 - 237.2 3.8 25.9 2337 NNE | 14 98 18 29.8 - 12.5
12/20/20 47.2 1342 19.1 0741 0.00 - 248.9 0.9 5.9 0118 NNW | 328 98 42 27.0 - 12.5
12/19/20 42.4 1325 16.1 0635 0.00 - 225.7 1.2 5.4 1428 W | 277 99 61 25.5 - 12.4
12/18/20 35.4 1400 12.7 0723 0.00 4.4 218.1 0.9 4.1 0843 NNW | 348 98 77 22.0 - 12.4
12/17/20 41.0 0003 21.2 0001 0.00 4.7 206.4 3.4 20.4 0316 NNW | 331 99 33 - 15.5 12.4
12/16/20 42.9 1438 22.6 0544 0.00 2.5 238.5 3.1 18.3 2136 NNE | 20 100 32 31.0 - 12.4
Max 53.6 - 31.7 - 0.00 4.7 248.9 9.6 36.6 - - 100 92 39.2 15.5 12.5
Avg - - - - - 1.6 92.9 3.0 - - - - - 26.0 - -
Min 31.6 - 10.0 - 0.00 0.1 7.5 0.8 3.9 - - 89 13 18.6 0.0 12.4